METAR Data
IDs: Format: Raw Decoded Include TAF

Data at: 2256 UTC 25 Oct 2021

PAFM 252233Z AUTO 26006KT 3SM -SN BR OVC004 M03/M04 A2931 RMK AO2 SNB14 P0000 FZRANO
PAFM 252214Z AUTO VRB05KT 1 3/4SM -SN BR BKN004 OVC011 M04/M05 A2931 RMK AO2 SNB14 P0000 FZRANO
PAFM 252156Z AUTO 26008KT 10SM BKN004 OVC070 M03/M05 A2931 RMK AO2 SLP930 T10331050 FZRANO
PAFM 252154Z AUTO 27009KT 10SM OVC004 M03/M05 A2931 RMK AO2 FZRANO
PAFM 252056Z AUTO 28005KT 10SM OVC008 M03/M04 A2929 RMK AO2 SNE12 SLP925 P0000 60000 T10331044 53009 FZRANO
PAFM 252003Z AUTO 26006KT 9SM -SN OVC008 M03/M04 A2929 RMK AO2 CIG 006V010 P0000 FZRANO
PAFM 251956Z AUTO 26004KT 9SM -SN OVC010 M03/M03 A2928 RMK AO2 CIG 006V011 SLP923 P0000 T10281033 FZRANO
PAFM 251856Z AUTO 25005KT 8SM -SN BKN012 BKN017 OVC049 M03/M03 A2927 RMK AO2 SLP919 P0000 T10281033 FZRANO
PAFM 251848Z AUTO 26004KT 9SM -SN BKN014 BKN019 OVC049 M03/M03 A2927 RMK AO2 P0000 FZRANO
PAFM 251756Z AUTO 27003KT 9SM -SN FEW011 OVC047 M02/M03 A2927 RMK AO2 SLP917 P0000 60001 T10221028 11011 21022 58002 FZRANO
PAFM 251710Z AUTO 26004KT 7SM -SN SCT006 SCT011 OVC047 M02/M03 A2927 RMK AO2 P0000 FZRANO
PAFM 251656Z AUTO VRB03KT 5SM -SN BR OVC006 M02/M03 A2927 RMK AO2 CIG 005V011 SLP919 P0000 T10221028 FZRANO
PAFM 251638Z AUTO 22003KT 6SM -SN BR BKN006 OVC047 M02/M03 A2927 RMK AO2 CIG 004V010 P0000 FZRANO
PAFM 251617Z AUTO 20003KT 7SM -SN SCT008 BKN049 OVC065 M02/M03 A2927 RMK AO2 P0000 FZRANO
PAFM 251608Z AUTO 00000KT 4SM -SN BR BKN008 BKN065 OVC090 M02/M02 A2927 RMK AO2 CIG 004V010 P0000 FZRANO
PAFM 251556Z AUTO 23003KT 2 1/2SM -SN BR OVC008 M02/M02 A2927 RMK AO2 CIG 005V010 SLP919 P0000 T10171022 FZRANO
PAFM 251513Z AUTO 24004KT 3SM -SN BR SCT008 OVC037 M02/M02 A2928 RMK AO2 P0000 FZRANO
PAFM 251456Z AUTO 24003KT 9SM -SN OVC033 M02/M02 A2928 RMK AO2 SNE25B46 SLP921 P0000 60001 T10171022 56002 FZRANO
PAFM 251356Z AUTO 27003KT 9SM -SN BKN029 OVC035 M02/M02 A2928 RMK AO2 SLP922 P0000 T10171022 FZRANO
PAFM 251331Z AUTO VRB03KT 5SM -SN BR SCT018 OVC037 M01/M02 A2928 RMK AO2 P0000 FZRANO
PAFM 251322Z AUTO 28005KT 5SM -SN BR BKN018 BKN023 OVC041 M01/M02 A2928 RMK AO2 P0000 FZRANO
PAFM 251256Z AUTO 28005KT 2SM -SN BR BKN018 BKN023 OVC029 M01/M02 A2928 RMK AO2 VIS 1 3/4V2 1/2 SLP924 P0001 T10111017 FZRANO
PAFM 251247Z AUTO 29005KT 2SM -SN BR BKN020 OVC029 M01/M02 A2929 RMK AO2 P0001 FZRANO
PAFM 251230Z AUTO 28006KT 3SM -SN BR FEW007 BKN016 OVC027 M01/M02 A2929 RMK AO2 P0000 FZRANO
PAFM 251222Z AUTO 28005KT 2SM -SN BR SCT007 OVC014 M01/M02 A2929 RMK AO2 P0000 FZRANO
PAFM 251211Z AUTO 27003KT 2SM -SN BR BKN007 OVC010 M01/M01 A2929 RMK AO2 CIG 002V010 P0000 FZRANO
PAFM 251156Z AUTO 00000KT 1 1/4SM -SN BR SCT005 OVC010 M01/M01 A2929 RMK AO2 SLP927 P0002 60007 70015 T10061011 10000 21006 56007 FZRANO
PAFM 251153Z AUTO 00000KT 1 1/4SM -SN BR SCT005 OVC010 M01/M01 A2929 RMK AO2 P0002 FZRANO
PAFM 251130Z AUTO 00000KT 1 3/4SM -SN BR OVC005 00/M01 A2930 RMK AO2 CIG 002V008 P0001 FZRANO
PAFM 251113Z AUTO 00000KT 1 1/2SM -SN BR OVC003 M01/M01 A2930 RMK AO2 P0001 FZRANO
PAFM 251056Z AUTO 00000KT 1 1/2SM -SN BR OVC005 00/M01 A2931 RMK AO2 UPB42E46SNE42B46 SLP931 P0001 T00001006 FZRANO
PAFM 251038Z AUTO 00000KT 1 3/4SM -SN BR OVC005 00/M01 A2931 RMK AO2 CIG 004V009 P0001 FZRANO
PAFM 251008Z AUTO 00000KT 2SM -SN BR OVC007 M01/M01 A2931 RMK AO2 VIS 1 1/2V3 CIG 005V009 P0000 FZRANO
PAFM 250956Z AUTO 00000KT 1 1/4SM -SN BR OVC005 M01/M01 A2932 RMK AO2 SLP934 P0003 T10061011 FZRANO
PAFM 250927Z AUTO 00000KT 1SM -SN BR OVC005 M01/M01 A2932 RMK AO2 CIG 003V009 P0001 FZRANO
PAFM 250917Z AUTO 00000KT 1 1/2SM -SN BR OVC005 M01/M01 A2932 RMK AO2 CIG 003V009 P0001 FZRANO
PAFM 250906Z AUTO 00000KT 1 1/2SM -SN BR OVC007 00/M01 A2933 RMK AO2 CIG 003V009 P0001 FZRANO
PAFM 250856Z AUTO 00000KT 1 1/4SM -SN BR OVC005 00/M01 A2933 RMK AO2 UPE11SNB11 CIG 003V009 SLP939 P0001 60001 T00001006 56010 FZRANO
PAFM 250815Z AUTO 00000KT 1 3/4SM -SN BR OVC005 00/M01 A2934 RMK AO2 UPE11SNB11 CIG 003V008 P0000 FZRANO
PAFM 250756Z AUTO 00000KT 5SM UP BR OVC005 00/M01 A2934 RMK AO2 CIG 003V008 SLP942 P0000 T00001006 400061022 FZRANO
PAFM 250740Z AUTO 16003KT 6SM UP BR OVC005 00/M01 A2934 RMK AO2 CIG 003V009 P0000 FZRANO
PAFM 250715Z AUTO 00000KT 9SM UP OVC009 00/M01 A2934 RMK AO2 CIG 005V011 P0000 FZRANO
PAFM 250656Z AUTO 00000KT 10SM UP BKN010 OVC014 00/M01 A2935 RMK AO2 UPB22SNE22B24E34 SLP944 P0000 T00001006 FZRANO
PAFM 250643Z AUTO 00000KT 10SM UP SCT007 OVC014 00/M01 A2935 RMK AO2 UPB22SNE22B24E34 P0000 FZRANO
PAFM 250610Z AUTO 00000KT 5SM -SN BR BKN007 OVC011 00/M01 A2936 RMK AO2 P0000 FZRANO
PAFM 250539Z AUTO 07004KT 10SM UP OVC011 00/M01 A2936 RMK AO2 CIG 005V013 P0000 FZRANO
PAFM 250456Z AUTO 00000KT 10SM UP BKN008 OVC012 00/M01 A2937 RMK AO2 UPB10 CIG 006V010 SLP954 P0000 T00001006 FZRANO
PAFM 250356Z AUTO 16003KT 10SM BKN008 OVC015 00/M01 A2939 RMK AO2 CIG 006V012 SLP958 T00001006 FZRANO
PAFM 250256Z AUTO 00000KT 7SM OVC006 00/M01 A2940 RMK AO2 SLP962 60000 T00001006 56010 FZRANO
PAFM 250156Z AUTO 00000KT 6SM BR OVC006 00/M01 A2941 RMK AO2 UPE0058 SLP965 P0000 T00001006 FZRANO
PAFM 250149Z AUTO 00000KT 2 1/2SM BR OVC006 00/M01 A2941 RMK AO2 UPE0058 P0000 FZRANO
PAFM 250056Z AUTO 00000KT 5SM UP BR OVC006 00/M01 A2942 RMK AO2 CIG 002V010 SLP968 P0000 T00001006 FZRANO
PAFM 250048Z AUTO 15003KT 3SM UP BR BKN005 OVC008 00/M01 A2942 RMK AO2 CIG 002V007 P0000 FZRANO
PAFM 250028Z AUTO 00000KT 1 1/4SM UP BR OVC003 00/M01 A2942 RMK AO2 P0000 FZRANO
PAFM 250019Z AUTO 12003KT 2SM UP BR OVC003 00/M01 A2942 RMK AO2 VIS 1 1/2V3 P0000 FZRANO
PAFM 242355Z AUTO 00000KT 3SM UP BR OVC003 00/M01 A2943 RMK AO2 UPB09E28B45SNE09B28E45 SLP973 P0002 60008 T00001006 10000 21017 58004 FZRANO
PAFM 242354Z AUTO 00000KT 3SM UP BR OVC003 00/M01 A2943 RMK AO2 UPB09E28B45SNE09B28E45 P0002 FZRANO
PAFM 242347Z AUTO 00000KT 1 1/2SM UP BR OVC003 00/M01 A2943 RMK AO2 UPB09E28B45SNE09B28E45 P0002 FZRANO
PAFM 242332Z AUTO 00000KT 1SM -SN BR OVC003 00/M01 A2943 RMK AO2 UPB09E28SNE09B28 P0001 FZRANO
PAFM 242318Z AUTO 00000KT 2 1/2SM UP BR OVC003 00/M01 A2943 RMK AO2 UPB09SNE09 P0001 FZRANO
PAFM 242304Z AUTO 00000KT 1 1/2SM -SN BR OVC003 00/M01 A2944 RMK AO2 VIS 1V2 1/2 CIG 003V006 P0000 FZRANO
PAFM 242256Z AUTO 00000KT 1SM -SN BR OVC005 00/M01 A2944 RMK AO2 UPB02E33SNE02B33 CIG 003V007 SLP976 P0002 T00001006 FZRANO
PAFM 242254Z AUTO 00000KT 3/4SM -SN BR OVC005 00/M01 A2944 RMK AO2 UPB02E33SNE02B33 CIG 003V007 P0002 FZRANO
PAFM 242238Z AUTO 00000KT 1SM -SN BR OVC003 00/M01 A2944 RMK AO2 VIS 3/4V1 3/4 UPB02E33SNE02B33 P0001 FZRANO
PAFM 242231Z AUTO 06003KT 2SM UP BR OVC003 00/M01 A2944 RMK AO2 UPB02SNE02 P0001 FZRANO
PAFM 242219Z AUTO 00000KT 2SM UP BR OVC005 00/M01 A2944 RMK AO2 VIS 1 1/2V3 UPB02SNE02 P0001 FZRANO
PAFM 242156Z AUTO 00000KT 1 1/4SM -SN BR OVC005 00/M01 A2944 RMK AO2 UPE10B36E51SNB10E36B51 SLP977 P0002 T00001006 FZRANO
PAFM 242133Z AUTO 03003KT 2SM -SN BR OVC005 M01/M01 A2944 RMK AO2 VIS 1V3 UPE10SNB10 P0001 FZRANO
PAFM 242125Z AUTO 03004KT 1SM -SN BR OVC005 M01/M01 A2944 RMK AO2 UPE10SNB10 P0001 FZRANO
PAFM 242056Z AUTO 04003KT 1 3/4SM UP BR OVC005 M01/M01 A2944 RMK AO2 UPB28SNE28 SLP977 P0001 60002 T10061011 50002 FZRANO
PAFM 242034Z AUTO 04003KT 2SM UP BR OVC005 M01/M01 A2944 RMK AO2 UPB28SNE28 P0000 FZRANO
PAFM 242025Z AUTO 02003KT 1 1/2SM -SN BR OVC005 M01/M02 A2944 RMK AO2 P0000 FZRANO
PAFM 241956Z AUTO 04004KT 1SM -SN BR OVC005 M01/M02 A2944 RMK AO2 UPB09E16SNE09B16 SLP978 P0001 T10111017 FZRANO
PAFM 241937Z AUTO 03005KT 3/4SM -SN BR OVC005 M02/M02 A2944 RMK AO2 UPB09E16SNE09B16 P0001 FZRANO
PAFM 241925Z AUTO 01004KT 1 3/4SM -SN BR OVC005 M02/M02 A2944 RMK AO2 VIS 1 1/4V3 UPB09E16SNE09B16 P0001 FZRANO
PAFM 241856Z AUTO 03005KT 3SM -SN BR OVC005 M02/M02 A2944 RMK AO2 SLP977 P0000 T10171022 FZRANO
PAFM 241853Z AUTO 02004KT 3SM -SN BR OVC005 M02/M02 A2944 RMK AO2 P0000 FZRANO
PAFM 241842Z AUTO 02005KT 1 3/4SM -SN BR OVC005 M02/M02 A2944 RMK AO2 P0000 FZRANO
PAFM 241828Z AUTO 02005KT 3SM -SN BR OVC005 M02/M02 A2944 RMK AO2 P0000 FZRANO
PAFM 241821Z AUTO 03005KT 1 1/2SM -SN BR OVC007 M02/M03 A2944 RMK AO2 P0000 FZRANO
PAFM 241808Z AUTO 03004KT 2SM -SN BR OVC007 M02/M03 A2944 RMK AO2 VIS 1V3 P0000 FZRANO
PAFM 241756Z AUTO 03005KT 3SM -SN BR OVC007 M02/M03 A2944 RMK AO2 SLP975 P0000 60000 T10171028 11017 21022 50001 FZRANO
PAFM 241742Z AUTO 02006KT 4SM -SN BR OVC007 M02/M03 A2943 RMK AO2 P0000 FZRANO
PAFM 241722Z AUTO 04006KT 2 1/2SM -SN BR OVC007 M02/M03 A2944 RMK AO2 P0000 FZRANO
PAFM 241656Z AUTO 04006KT 5SM -SN BR OVC007 M02/M03 A2944 RMK AO2 SLP976 P0000 T10221028 FZRANO
PAFM 241624Z AUTO 02007KT 3SM -SN BR OVC009 M02/M03 A2944 RMK AO2 P0000 FZRANO
PAFM 241556Z AUTO 02006KT 4SM -SN BR OVC011 M02/M03 A2944 RMK AO2 SLP976 P0000 T10221028 FZRANO
PAFM 241507Z AUTO 03007KT 3SM -SN BR BKN011 BKN019 OVC024 M02/M03 A2943 RMK AO2 P0000 FZRANO
PAFM 241456Z AUTO 03007KT 5SM -SN BR SCT013 BKN019 OVC026 M02/M03 A2943 RMK AO2 SLP974 P0000 60000 T10221033 50003 FZRANO
PAFM 241413Z AUTO 03004KT 4SM -SN BR BKN027 BKN034 OVC044 M02/M03 A2944 RMK AO2 P0000 FZRANO
PAFM 241356Z AUTO 04005KT 7SM -SN BKN033 OVC044 M02/M03 A2944 RMK AO2 SNB04 SLP975 P0000 T10171033 FZRANO
PAFM 241339Z AUTO 06004KT 7SM -SN SCT028 SCT033 OVC044 M02/M03 A2944 RMK AO2 SNB04 P0000 FZRANO
PAFM 241328Z AUTO 04005KT 8SM -SN BKN028 OVC044 M02/M04 A2943 RMK AO2 SNB04 P0000 FZRANO
PAFM 241256Z AUTO 04005KT 10SM BKN030 BKN035 OVC055 M02/M04 A2943 RMK AO2 SLP973 T10171039 FZRANO
PAFM 241156Z AUTO 03005KT 10SM FEW050 OVC070 M02/M04 A2943 RMK AO2 SLP971 60000 T10171039 11006 21017 53012 FZRANO